This is the latest recevied weather packets stored in our database for station/object HS5FXK-3. If no packets are shown the sender has not sent any weather packets the latest 10 day(s).
| Time | Temp. | Humidity | Pressure | Rain* | Wind** | Luminosity | Snow |
|---|---|---|---|---|---|---|---|
| 1777970016 | 35.56° C | 49% | 977 hPa | - | - | 0 W/m² | - |
| 1777969103 | 35.56° C | 49% | 977 hPa | - | - | 0 W/m² | - |
| 1777968190 | 36.11° C | 47% | 977 hPa | - | - | 0 W/m² | - |
| 1777967576 | 36.11° C | 47% | 978 hPa | - | - | 0 W/m² | - |
| 1777966663 | 37.22° C | 47% | 978 hPa | - | - | 0 W/m² | - |
| 1777965750 | 36.11° C | 48% | 978 hPa | - | - | 0 W/m² | - |
| 1777964838 | 35.56° C | 50% | 979 hPa | - | - | 0 W/m² | - |
| 1777963925 | 35.56° C | 51% | 979 hPa | - | - | 0 W/m² | - |
| 1777963012 | 35.56° C | 52% | 979 hPa | - | - | 0 W/m² | - |
| 1777962102 | 35.56° C | 53% | 980 hPa | - | - | 0 W/m² | - |
| 1777961930 | 34.44° C | 55% | 980 hPa | - | - | 0 W/m² | - |
| 1777961172 | 33.89° C | 56% | 980 hPa | - | - | 0 W/m² | - |
| 1777960258 | 35° C | 56% | 981 hPa | - | - | 0 W/m² | - |
| 1777959364 | 35° C | 56% | 981 hPa | - | - | 0 W/m² | - |
| 1777958431 | 33.89° C | 58% | 981 hPa | - | - | 0 W/m² | - |
| 1777957518 | 33.89° C | 58% | 982 hPa | - | - | 0 W/m² | - |
| 1777956604 | 33.33° C | 59% | 982 hPa | - | - | 0 W/m² | - |
| 1777955691 | 33.33° C | 59% | 982 hPa | - | - | 0 W/m² | - |
| 1777954778 | 32.22° C | 64% | 982 hPa | - | - | 0 W/m² | - |
| 1777953864 | 31.11° C | 73% | 983 hPa | - | - | 0 W/m² | - |
| 1777952975 | 30.56° C | 74% | 983 hPa | - | - | 0 W/m² | - |
| 1777952807 | 30° C | 75% | 983 hPa | - | - | 0 W/m² | - |
| 1777952459 | 29.44° C | 81% | 983 hPa | - | - | 0 W/m² | - |
| 1777952170 | 29.44° C | 82% | 983 hPa | - | - | 0 W/m² | - |
| 1777951926 | 28.89° C | 83% | 983 hPa | - | - | 0 W/m² | - |
* Rain since midnight (hover to see other rain measurements)
** Current wind speed in m/s (hover to see current wind gust speed)